Time;durP1;ratioP1;P1;durP2;ratioP2;P2;SDS_P1;SDS_P2;PMS_P1;PMS_P2;Temp;Humidity;BMP_temperature;BMP_pressure;BME280_temperature;BME280_humidity;BME280_pressure;Samples;Min_cycle;Max_cycle;Signal;HPM_P1;HPM_P2
2022/04/09 00:00:45;;;;;;;16.83;4.57;;;;;;;7.15;55.94;100446.75;5197633;28;20499;-40
2022/04/09 00:03:17;;;;;;;14.02;4.50;;;;;;;7.10;56.03;100448.97;5202491;28;20435;-40
2022/04/09 00:05:50;;;;;;;14.57;4.05;;;;;;;7.04;56.04;100454.78;5198708;28;20518;-40
2022/04/09 00:08:22;;;;;;;14.32;4.32;;;;;;;6.99;56.26;100457.78;5190054;28;20591;-42
2022/04/09 00:10:54;;;;;;;15.10;4.20;;;;;;;6.93;56.10;100456.53;5200562;28;20435;-40
2022/04/09 00:13:28;;;;;;;14.43;5.05;;;;;;;6.89;56.05;100457.78;5189367;28;20630;-40
2022/04/09 00:16:01;;;;;;;22.52;5.72;;;;;;;6.84;56.10;100462.59;5194206;28;20415;-40
2022/04/09 00:18:33;;;;;;;13.60;4.67;;;;;;;6.83;56.27;100474.06;5200097;28;20846;-39
2022/04/09 00:21:06;;;;;;;15.65;4.90;;;;;;;6.77;56.34;100471.97;5191896;28;20425;-40
2022/04/09 00:23:38;;;;;;;17.98;5.50;;;;;;;6.75;56.36;100473.06;5192841;28;20879;-41
2022/04/09 00:26:10;;;;;;;19.17;5.10;;;;;;;6.77;56.35;100485.09;5199892;28;20445;-40
2022/04/09 00:28:44;;;;;;;16.33;4.97;;;;;;;6.76;56.38;100483.44;5194509;28;20422;-41
2022/04/09 00:31:17;;;;;;;26.30;5.72;;;;;;;6.75;56.49;100487.03;5192494;28;20423;-40
2022/04/09 00:33:49;;;;;;;18.70;6.23;;;;;;;6.74;56.45;100490.59;5190124;28;20510;-41
2022/04/09 00:36:21;;;;;;;21.55;5.88;;;;;;;6.73;56.54;100496.84;5198112;28;20431;-40
2022/04/09 00:38:54;;;;;;;17.08;5.32;;;;;;;6.72;56.51;100492.56;5193575;28;20507;-40
2022/04/09 00:41:26;;;;;;;27.25;6.10;;;;;;;6.72;56.63;100500.44;5196711;28;20406;-40
2022/04/09 00:44:03;;;;;;;23.63;5.60;;;;;;;6.73;56.65;100499.47;5192534;28;20910;-40
2022/04/09 00:46:35;;;;;;;23.42;6.68;;;;;;;6.77;56.70;100524.47;5192302;28;20407;-39
2022/04/09 00:49:08;;;;;;;24.60;5.35;;;;;;;6.84;56.77;100525.59;5189361;28;20657;-40
2022/04/09 00:51:43;;;;;;;17.80;5.35;;;;;;;6.85;56.88;100513.31;5192847;28;20894;-38
2022/04/09 00:54:16;;;;;;;15.32;5.10;;;;;;;6.86;56.87;100514.97;5189550;28;20510;-38
2022/04/09 00:56:51;;;;;;;15.23;3.97;;;;;;;6.86;57.10;100526.28;5187787;28;20427;-39
2022/04/09 00:59:27;;;;;;;15.27;4.85;;;;;;;6.83;57.32;100523.09;5189400;28;20779;-40
2022/04/09 01:02:00;;;;;;;16.10;5.13;;;;;;;6.88;57.22;100539.31;5194998;28;20883;-39
2022/04/09 01:04:34;;;;;;;13.57;3.75;;;;;;;6.82;57.31;100519.66;5195239;28;20451;-40
2022/04/09 01:07:06;;;;;;;15.52;4.75;;;;;;;6.86;57.39;100542.03;5196652;28;20853;-39
2022/04/09 01:09:39;;;;;;;13.35;3.80;;;;;;;6.81;57.20;100541.59;5195135;28;20484;-41
2022/04/09 01:12:14;;;;;;;14.90;4.10;;;;;;;6.81;57.36;100544.22;5199303;28;20916;-42
2022/04/09 01:14:48;;;;;;;10.02;4.10;;;;;;;6.77;57.16;100550.72;5194834;28;20421;-40
2022/04/09 01:17:20;;;;;;;11.93;4.13;;;;;;;6.74;57.36;100543.09;5195032;28;20516;-40
2022/04/09 01:19:52;;;;;;;12.48;4.50;;;;;;;6.73;57.20;100549.31;5194911;28;20505;-40
2022/04/09 01:22:29;;;;;;;14.55;3.03;;;;;;;6.43;57.18;100514.25;5195891;28;20961;-40
2022/04/09 01:25:01;;;;;;;8.77;3.20;;;;;;;6.69;57.27;100556.63;5193215;28;20432;-40
2022/04/09 01:27:33;;;;;;;10.27;3.33;;;;;;;6.66;57.19;100561.31;5201122;28;20461;-39
2022/04/09 01:30:08;;;;;;;16.60;3.27;;;;;;;6.64;57.14;100568.47;5200371;28;20431;-40
2022/04/09 01:32:41;;;;;;;14.98;3.72;;;;;;;6.62;57.00;100573.03;5203734;28;20406;-40
2022/04/09 01:35:13;;;;;;;15.80;4.18;;;;;;;6.60;57.32;100588.09;5195536;28;20530;-40
2022/04/09 01:37:48;;;;;;;19.17;4.03;;;;;;;6.59;57.14;100583.78;5203471;28;20413;-39
2022/04/09 01:40:20;;;;;;;22.38;4.38;;;;;;;6.59;57.24;100591.66;5202558;28;20420;-39
2022/04/09 01:42:52;;;;;;;11.90;3.75;;;;;;;6.60;57.40;100591.53;5197471;28;20439;-39
2022/04/09 01:45:27;;;;;;;12.63;3.97;;;;;;;6.62;57.53;100591.38;5193112;28;20421;-40
2022/04/09 01:48:00;;;;;;;16.27;3.97;;;;;;;6.65;57.52;100591.13;5191323;28;20414;-39
2022/04/09 01:50:33;;;;;;;17.58;4.53;;;;;;;6.65;57.49;100585.88;5202708;28;20482;-39
2022/04/09 01:53:07;;;;;;;15.95;4.20;;;;;;;6.71;57.27;100593.22;5189985;28;20429;-40
2022/04/09 01:55:40;;;;;;;22.35;5.25;;;;;;;6.51;57.31;100570.50;5193058;28;20411;-39
2022/04/09 01:58:12;;;;;;;14.10;4.65;;;;;;;6.74;57.29;100600.84;5197643;28;20447;-39
2022/04/09 02:00:45;;;;;;;24.95;5.78;;;;;;;6.76;57.20;100601.56;5201684;28;20788;-40
2022/04/09 02:03:17;;;;;;;21.70;5.47;;;;;;;6.79;57.17;100598.66;5194770;28;20419;-39
2022/04/09 02:05:50;;;;;;;17.67;4.90;;;;;;;6.80;57.12;100610.81;5190274;28;20911;-39
2022/04/09 02:08:24;;;;;;;20.63;4.82;;;;;;;6.79;57.32;100606.53;5204487;28;20420;-39
2022/04/09 02:10:56;;;;;;;14.25;4.97;;;;;;;6.83;57.12;100610.56;5192445;28;20966;-40
2022/04/09 02:13:28;;;;;;;23.45;5.97;;;;;;;6.88;57.44;100602.31;5190398;28;20408;-40
2022/04/09 02:16:01;;;;;;;26.95;6.20;;;;;;;6.90;57.12;100622.19;5196822;28;20767;-39
2022/04/09 02:18:33;;;;;;;23.35;5.57;;;;;;;6.94;57.25;100617.53;5197852;28;20845;-39
2022/04/09 02:21:06;;;;;;;24.38;6.03;;;;;;;6.94;57.37;100622.78;5193873;28;20508;-39
2022/04/09 02:23:40;;;;;;;27.55;5.22;;;;;;;6.93;57.27;100626.34;5202404;28;20421;-39
2022/04/09 02:26:13;;;;;;;19.92;5.60;;;;;;;6.92;57.26;100636.03;5201948;28;20426;-41
2022/04/09 02:28:49;;;;;;;15.85;4.72;;;;;;;6.92;57.15;100636.03;5193487;28;21692;-41
2022/04/09 02:31:22;;;;;;;12.40;4.10;;;;;;;6.95;57.35;100636.72;5187483;28;20462;-39
2022/04/09 02:33:55;;;;;;;22.63;5.75;;;;;;;6.95;57.19;100644.59;5183344;28;20440;-39
2022/04/09 02:36:28;;;;;;;12.77;4.53;;;;;;;6.96;57.20;100649.72;5193945;28;20418;-39
2022/04/09 02:39:02;;;;;;;21.33;4.20;;;;;;;6.91;57.24;100644.88;5195373;28;20844;-38
2022/04/09 02:41:34;;;;;;;21.63;5.55;;;;;;;6.89;56.97;100640.72;5187048;28;20502;-40
2022/04/09 02:44:08;;;;;;;23.75;6.47;;;;;;;7.01;56.94;100654.59;5192548;28;20413;-38
2022/04/09 02:46:41;;;;;;;17.30;5.35;;;;;;;7.05;57.09;100661.22;5198367;28;20433;-39
2022/04/09 02:49:13;;;;;;;24.80;5.47;;;;;;;7.04;57.16;100649.06;5196326;28;20536;-39
2022/04/09 02:51:45;;;;;;;21.35;5.95;;;;;;;7.05;56.92;100662.06;5168508;28;20517;-39
2022/04/09 02:54:19;;;;;;;14.30;5.28;;;;;;;7.07;56.95;100665.41;5198150;28;20432;-40
2022/04/09 02:56:52;;;;;;;15.40;5.22;;;;;;;7.10;56.97;100688.75;5197986;28;20895;-39
2022/04/09 02:59:27;;;;;;;13.47;3.80;;;;;;;7.06;57.23;100679.50;5197071;28;20919;-39
2022/04/09 03:01:59;;;;;;;9.37;3.30;;;;;;;7.03;57.04;100678.91;5191210;28;20913;-39
2022/04/09 03:04:32;;;;;;;12.63;3.20;;;;;;;6.99;57.07;100698.50;5198001;28;20430;-40
2022/04/09 03:07:05;;;;;;;13.30;3.72;;;;;;;6.96;57.05;100711.91;5201605;28;20501;-40
2022/04/09 03:09:39;;;;;;;14.18;3.72;;;;;;;6.86;56.98;100689.03;5194074;28;20427;-39
2022/04/09 03:12:12;;;;;;;13.82;3.15;;;;;;;6.80;57.05;100684.31;5205213;28;20881;-40
2022/04/09 03:14:46;;;;;;;12.20;4.03;;;;;;;6.86;57.07;100709.22;5187073;28;20426;-39
2022/04/09 03:17:19;;;;;;;11.80;4.03;;;;;;;6.82;57.04;100713.91;5194885;28;20415;-40
2022/04/09 03:19:51;;;;;;;15.75;4.28;;;;;;;6.84;57.05;100740.84;5182348;28;20441;-39
2022/04/09 03:22:24;;;;;;;14.35;3.80;;;;;;;6.78;57.18;100728.25;5196535;28;20457;-39
2022/04/09 03:24:59;;;;;;;17.77;5.00;;;;;;;6.73;57.32;100725.16;5193932;28;20415;-45
2022/04/09 03:27:31;;;;;;;16.15;4.05;;;;;;;6.66;57.17;100706.47;5189869;28;21013;-39
2022/04/09 03:30:06;;;;;;;18.48;4.20;;;;;;;6.68;57.16;100722.09;5190971;28;20777;-39
2022/04/09 03:32:40;;;;;;;9.70;3.38;;;;;;;6.61;57.28;100726.19;5191890;28;20421;-39
2022/04/09 03:35:13;;;;;;;12.63;3.72;;;;;;;6.60;57.13;100727.16;5198222;28;20508;-39
2022/04/09 03:37:46;;;;;;;10.57;3.95;;;;;;;6.59;57.26;100722.84;5192754;28;20425;-39
2022/04/09 03:40:20;;;;;;;10.77;3.50;;;;;;;6.54;57.27;100735.53;5191248;28;20453;-40
2022/04/09 03:42:52;;;;;;;13.23;3.87;;;;;;;6.52;57.13;100734.81;5194638;28;20825;-39
2022/04/09 03:45:25;;;;;;;12.27;3.63;;;;;;;6.56;57.20;100746.72;5185162;28;21257;-40
2022/04/09 03:47:57;;;;;;;12.85;4.13;;;;;;;6.47;57.36;100727.31;5188657;28;20413;-40
2022/04/09 03:50:30;;;;;;;15.07;3.53;;;;;;;6.63;57.45;100750.50;5192370;28;20441;-40
2022/04/09 03:53:02;;;;;;;15.95;4.20;;;;;;;6.64;57.37;100752.16;5191960;28;20482;-39
2022/04/09 03:55:36;;;;;;;13.18;3.50;;;;;;;6.56;57.34;100737.03;5179963;28;20411;-38
2022/04/09 03:58:10;;;;;;;14.52;4.03;;;;;;;6.56;57.19;100733.59;5188922;28;20473;-40
2022/04/09 04:00:42;;;;;;;12.73;4.28;;;;;;;6.56;57.13;100744.91;5201548;28;20526;-41
2022/04/09 04:03:15;;;;;;;19.73;4.70;;;;;;;6.62;57.18;100748.81;5192477;28;20421;-39
2022/04/09 04:05:49;;;;;;;16.08;3.85;;;;;;;6.58;57.17;100747.44;5188888;28;20457;-40
2022/04/09 04:08:22;;;;;;;11.98;3.90;;;;;;;6.57;57.50;100756.28;5191716;28;20536;-39
2022/04/09 04:10:56;;;;;;;8.73;3.53;;;;;;;6.57;57.41;100761.50;5186940;28;20500;-40
2022/04/09 04:13:30;;;;;;;19.63;4.57;;;;;;;6.55;57.24;100758.19;5191072;28;20498;-40
2022/04/09 04:16:04;;;;;;;12.82;4.13;;;;;;;6.55;57.36;100764.25;5192847;28;20422;-40
2022/04/09 04:18:37;;;;;;;21.23;4.90;;;;;;;6.48;57.50;100752.59;5205402;28;20491;-47
2022/04/09 04:21:10;;;;;;;21.35;5.00;;;;;;;6.55;57.58;100769.50;5191452;28;20431;-39
2022/04/09 04:23:42;;;;;;;18.17;4.65;;;;;;;6.61;57.61;100783.91;5193822;28;20484;-41
2022/04/09 04:26:16;;;;;;;19.95;4.40;;;;;;;6.60;57.53;100777.00;5185491;28;20929;-39
2022/04/09 04:28:51;;;;;;;14.93;4.20;;;;;;;6.64;57.40;100787.13;5189706;28;20509;-39
2022/04/09 04:31:23;;;;;;;24.80;5.63;;;;;;;6.57;57.55;100777.25;5181140;28;20506;-40
2022/04/09 04:33:56;;;;;;;14.60;4.05;;;;;;;6.65;57.51;100785.31;5185312;28;20514;-41
2022/04/09 04:36:28;;;;;;;18.77;5.43;;;;;;;6.64;57.46;100795.00;5194238;28;20434;-39
2022/04/09 04:39:00;;;;;;;18.80;4.80;;;;;;;6.64;57.62;100794.16;5190567;28;20420;-40
2022/04/09 04:41:34;;;;;;;19.27;6.00;;;;;;;6.63;57.90;100803.81;5198011;28;20531;-39
2022/04/09 04:44:09;;;;;;;25.45;5.38;;;;;;;6.65;57.74;100807.13;5177772;28;20998;-38
2022/04/09 04:46:42;;;;;;;17.67;4.13;;;;;;;6.66;57.67;100800.94;5187298;28;20920;-39
2022/04/09 04:49:14;;;;;;;23.40;4.88;;;;;;;6.69;57.72;100813.00;5195632;28;20419;-42
2022/04/09 04:51:47;;;;;;;20.42;4.93;;;;;;;6.72;57.68;100822.38;5200731;28;20445;-41
2022/04/09 04:54:19;;;;;;;25.17;6.40;;;;;;;6.75;57.89;100820.38;5191873;28;20498;-40
2022/04/09 04:56:53;;;;;;;18.17;4.88;;;;;;;6.81;57.45;100819.84;5192528;28;20407;-41
2022/04/09 04:59:25;;;;;;;16.33;4.75;;;;;;;6.84;57.82;100834.50;5200619;28;20413;-39
2022/04/09 05:01:58;;;;;;;21.13;5.13;;;;;;;6.85;57.68;100825.69;5198912;28;21129;-39
2022/04/09 05:04:30;;;;;;;19.77;5.13;;;;;;;6.85;57.62;100823.91;5191319;28;20404;-41
2022/04/09 05:07:03;;;;;;;20.33;6.07;;;;;;;6.47;57.77;100770.13;5204029;28;20405;-40
2022/04/09 05:09:36;;;;;;;21.88;4.88;;;;;;;6.95;57.68;100833.66;5191591;28;20405;-41
2022/04/09 05:12:11;;;;;;;21.45;5.32;;;;;;;6.88;57.86;100828.06;5198082;28;20523;-40
2022/04/09 05:14:43;;;;;;;20.83;5.38;;;;;;;6.96;57.58;100845.81;5194844;28;20482;-41
2022/04/09 05:17:16;;;;;;;19.98;4.55;;;;;;;6.87;57.81;100848.22;5190907;28;20453;-39
2022/04/09 05:19:48;;;;;;;13.32;3.85;;;;;;;6.93;58.05;100863.47;5195696;28;20539;-39
2022/04/09 05:22:21;;;;;;;5.60;2.50;;;;;;;6.91;58.03;100868.03;5191922;28;20510;-40
2022/04/09 05:24:54;;;;;;;7.68;3.47;;;;;;;6.86;58.04;100859.69;5191557;28;20497;-39
2022/04/09 05:27:28;;;;;;;5.60;2.72;;;;;;;6.87;58.07;100877.09;5197661;28;20617;-41
2022/04/09 05:30:00;;;;;;;4.68;2.35;;;;;;;6.87;57.72;100878.88;5193974;28;20397;-39
2022/04/09 05:32:35;;;;;;;8.95;2.92;;;;;;;6.89;57.87;100875.19;5201297;28;20493;-39
2022/04/09 05:35:09;;;;;;;4.28;2.33;;;;;;;6.86;57.57;100874.59;5173101;28;20474;-41
2022/04/09 05:37:45;;;;;;;11.20;3.70;;;;;;;6.91;57.90;100881.16;5206323;28;20904;-40
2022/04/09 05:40:18;;;;;;;11.05;3.20;;;;;;;6.81;57.57;100864.47;5200163;28;20905;-40
2022/04/09 05:42:52;;;;;;;7.03;3.57;;;;;;;6.94;57.47;100887.94;5192817;28;20431;-39
2022/04/09 05:45:24;;;;;;;9.82;3.35;;;;;;;6.87;57.35;100884.97;5199449;28;20485;-41
2022/04/09 05:47:57;;;;;;;16.73;3.90;;;;;;;6.95;57.56;100902.75;5194744;28;20411;-40
2022/04/09 05:50:29;;;;;;;9.20;3.38;;;;;;;6.97;57.63;100905.22;5193196;28;20397;-40
2022/04/09 05:53:02;;;;;;;13.63;4.50;;;;;;;7.01;57.44;100906.66;5199465;28;20409;-42
2022/04/09 05:55:36;;;;;;;11.90;3.45;;;;;;;7.07;57.37;100904.38;5201500;28;20474;-40
2022/04/09 05:58:10;;;;;;;16.17;4.40;;;;;;;7.19;57.40;100906.97;5193456;28;20431;-40
2022/04/09 06:00:43;;;;;;;12.20;3.63;;;;;;;7.35;57.30;100912.59;5198384;28;20421;-43
2022/04/09 06:03:17;;;;;;;14.70;5.23;;;;;;;7.53;57.34;100918.97;5195002;28;20513;-41
2022/04/09 06:05:50;;;;;;;16.08;4.43;;;;;;;7.66;57.08;100921.38;5198787;28;20444;-38
2022/04/09 06:08:24;;;;;;;12.38;3.63;;;;;;;7.77;57.05;100926.59;5195224;28;20589;-40
2022/04/09 06:10:56;;;;;;;14.77;4.07;;;;;;;7.82;57.03;100924.38;5191425;28;20410;-40
2022/04/09 06:13:30;;;;;;;17.40;4.45;;;;;;;7.98;57.00;100930.97;5195078;28;20510;-40
2022/04/09 06:16:07;;;;;;;19.40;4.07;;;;;;;8.22;56.80;100936.78;5198236;28;20452;-40
2022/04/09 06:18:41;;;;;;;14.35;4.10;;;;;;;9.57;55.94;100924.81;5191783;28;20486;-39
2022/04/09 06:21:16;;;;;;;12.95;3.40;;;;;;;11.37;54.17;100929.63;5188617;28;20433;-39
2022/04/09 06:23:48;;;;;;;8.80;2.67;;;;;;;12.99;52.87;100937.72;5191308;28;20850;-40
2022/04/09 06:26:23;;;;;;;17.20;3.45;;;;;;;14.37;51.44;100933.28;5193953;28;20423;-41
2022/04/09 06:28:57;;;;;;;15.20;2.75;;;;;;;14.43;51.31;100919.31;5196093;28;20428;-43
2022/04/09 06:31:29;;;;;;;12.82;3.33;;;;;;;14.35;51.66;100948.59;5192939;28;20417;-42
2022/04/09 06:34:02;;;;;;;8.50;2.53;;;;;;;14.21;51.61;100958.91;5195813;28;20538;-41
2022/04/09 06:36:34;;;;;;;13.23;2.90;;;;;;;13.45;51.93;100940.78;5192141;28;20765;-40
2022/04/09 06:39:07;;;;;;;9.63;2.40;;;;;;;12.87;52.25;100959.22;5199467;28;20496;-41
2022/04/09 06:41:41;;;;;;;8.65;2.60;;;;;;;12.21;52.63;100973.22;5197358;28;20417;-40
2022/04/09 06:44:16;;;;;;;12.10;3.28;;;;;;;11.62;52.77;100972.97;5201281;28;20438;-41
2022/04/09 06:46:51;;;;;;;9.65;2.50;;;;;;;11.22;53.03;100978.72;5192732;28;20414;-41
2022/04/09 06:49:23;;;;;;;12.80;2.80;;;;;;;10.89;53.23;100983.66;5204614;28;20423;-43
2022/04/09 06:51:56;;;;;;;9.75;3.42;;;;;;;10.63;53.21;100982.69;5189085;28;20531;-40
2022/04/09 06:54:28;;;;;;;12.90;3.60;;;;;;;10.41;53.33;100982.09;5196604;28;20413;-39
2022/04/09 06:57:04;;;;;;;14.33;3.70;;;;;;;10.30;53.40;100990.19;5195228;28;20435;-40
2022/04/09 06:59:37;;;;;;;14.65;3.95;;;;;;;10.52;53.23;101002.19;5193150;28;20497;-41
2022/04/09 07:02:10;;;;;;;14.75;4.28;;;;;;;11.29;52.86;101006.22;5191860;28;20447;-40
2022/04/09 07:04:42;;;;;;;10.23;2.85;;;;;;;11.99;51.92;101007.16;5199827;28;20421;-42
2022/04/09 07:07:21;;;;;;;9.35;2.25;;;;;;;12.79;51.22;101009.59;5195795;28;20458;-40
2022/04/09 07:09:56;;;;;;;7.18;2.20;;;;;;;12.48;51.32;101029.63;5198257;28;20443;-40
2022/04/09 07:12:31;;;;;;;5.75;2.10;;;;;;;11.82;51.70;101034.44;5197507;28;20490;-41
2022/04/09 07:15:06;;;;;;;8.55;2.20;;;;;;;11.21;52.25;101021.97;5199974;28;20405;-40
2022/04/09 07:17:42;;;;;;;10.60;2.60;;;;;;;10.68;52.20;100991.00;5191545;28;20436;-40
2022/04/09 07:20:15;;;;;;;8.88;2.15;;;;;;;10.57;52.34;101034.28;5194724;28;20449;-41
2022/04/09 07:22:47;;;;;;;12.45;3.30;;;;;;;10.30;52.55;101027.13;5186900;28;20882;-40
2022/04/09 07:25:20;;;;;;;15.90;3.28;;;;;;;10.06;52.55;101031.03;5194693;28;20474;-39
2022/04/09 07:27:52;;;;;;;13.00;2.85;;;;;;;9.89;52.71;101034.41;5190555;28;20427;-40
2022/04/09 07:30:26;;;;;;;16.35;3.60;;;;;;;9.70;52.78;101036.09;5187571;28;20969;-40
2022/04/09 07:32:59;;;;;;;10.93;3.03;;;;;;;9.88;52.69;101044.13;5198895;28;20418;-40
2022/04/09 07:35:32;;;;;;;9.23;2.80;;;;;;;11.19;51.76;101042.47;5189139;28;20415;-40
2022/04/09 07:38:07;;;;;;;9.35;2.38;;;;;;;13.22;49.67;101044.00;5188663;28;20415;-41
2022/04/09 07:40:40;;;;;;;4.68;2.05;;;;;;;15.22;47.60;101037.94;5188544;28;20410;-40
2022/04/09 07:43:12;;;;;;;10.10;3.08;;;;;;;16.69;46.21;101019.00;5191423;28;20528;-41
2022/04/09 07:45:46;;;;;;;7.35;2.42;;;;;;;18.18;44.93;101054.91;5193153;28;20416;-40
2022/04/09 07:48:20;;;;;;;7.70;1.50;;;;;;;19.12;43.98;101057.88;5193825;28;20503;-41
2022/04/09 07:50:52;;;;;;;3.35;1.10;;;;;;;19.26;43.89;101050.75;5190251;28;20496;-41
2022/04/09 07:53:25;;;;;;;3.33;1.25;;;;;;;19.25;44.11;101061.63;5190711;28;20464;-40
2022/04/09 07:55:57;;;;;;;5.10;1.40;;;;;;;19.48;43.66;101069.31;5195326;28;20806;-42
2022/04/09 07:58:30;;;;;;;4.05;1.15;;;;;;;18.39;44.46;101076.19;5190888;28;20506;-42
2022/04/09 08:01:04;;;;;;;3.97;1.40;;;;;;;16.86;45.77;101078.34;5180317;28;20460;-43
2022/04/09 08:03:36;;;;;;;5.00;1.50;;;;;;;15.52;46.33;101107.28;5187093;28;20434;-42
2022/04/09 08:06:09;;;;;;;6.00;1.80;;;;;;;14.48;47.14;101076.41;5192370;28;20449;-41
2022/04/09 08:08:42;;;;;;;3.30;1.27;;;;;;;13.78;47.63;101084.91;5192698;28;20820;-41
2022/04/09 08:11:14;;;;;;;6.38;2.00;;;;;;;13.27;48.04;101084.19;5189820;28;20423;-41
2022/04/09 08:13:46;;;;;;;9.00;2.25;;;;;;;13.04;48.21;101094.50;5191356;28;20414;-41
2022/04/09 08:16:23;;;;;;;7.85;2.38;;;;;;;12.83;48.18;101101.03;5190545;28;20496;-46
2022/04/09 08:18:56;;;;;;;6.90;2.15;;;;;;;12.59;48.27;101095.59;5188069;28;20413;-41
2022/04/09 08:21:28;;;;;;;8.52;2.63;;;;;;;12.45;48.34;101097.03;5178956;28;20423;-42
2022/04/09 08:24:01;;;;;;;7.18;1.90;;;;;;;12.34;48.63;101110.50;5185314;28;20415;-39
2022/04/09 08:26:34;;;;;;;7.00;2.03;;;;;;;12.43;48.40;101110.41;5187525;28;20485;-40
2022/04/09 08:29:06;;;;;;;9.00;1.73;;;;;;;12.34;48.23;101111.34;5185999;28;20430;-39
2022/04/09 08:31:41;;;;;;;5.30;2.20;;;;;;;12.39;48.35;101114.34;5188523;28;20469;-41
2022/04/09 08:34:13;;;;;;;7.03;1.70;;;;;;;13.21;47.96;101125.41;5193483;28;20433;-48
2022/04/09 08:36:47;;;;;;;9.65;2.17;;;;;;;14.03;47.47;101109.69;5188191;28;20430;-40
2022/04/09 08:39:19;;;;;;;11.20;3.28;;;;;;;14.37;47.15;101119.28;5190364;28;20490;-41
2022/04/09 08:41:53;;;;;;;10.15;2.33;;;;;;;14.98;46.78;101120.50;5191876;28;20449;-39
2022/04/09 08:44:26;;;;;;;11.93;2.70;;;;;;;15.54;46.47;101125.75;5190436;28;20458;-39
2022/04/09 08:47:00;;;;;;;11.88;2.60;;;;;;;15.81;46.50;101117.28;5197416;28;20880;-39
2022/04/09 08:49:38;;;;;;;7.30;1.63;;;;;;;15.89;46.42;101113.75;5207941;28;22428;-39
2022/04/09 08:52:11;;;;;;;11.43;2.08;;;;;;;15.86;46.72;101119.44;5203231;28;20885;-39
2022/04/09 08:54:43;;;;;;;12.52;2.55;;;;;;;15.70;47.22;101119.50;5201866;28;20407;-40
2022/04/09 08:57:16;;;;;;;8.52;2.33;;;;;;;15.68;47.02;101128.53;5198019;28;20509;-39
2022/04/09 08:59:49;;;;;;;6.03;2.20;;;;;;;15.33;47.04;101134.31;5205436;28;21115;-42
2022/04/09 09:02:23;;;;;;;10.03;2.10;;;;;;;14.99;47.56;101123.00;5195663;28;20460;-39
2022/04/09 09:04:55;;;;;;;10.93;2.10;;;;;;;14.93;47.73;101133.50;5190205;28;20514;-40
2022/04/09 09:07:28;;;;;;;13.73;2.67;;;;;;;14.78;47.70;101144.00;5191767;28;20409;-39
2022/04/09 09:10:18;;;;;;;12.38;2.60;;;;;;;14.59;48.01;101153.19;5187562;28;20456;-40
2022/04/09 09:13:00;;;;;;;11.20;2.40;;;;;;;14.30;48.12;101151.00;5192542;28;21030;-39
2022/04/09 09:15:47;;;;;;;10.75;2.83;;;;;;;13.83;48.18;101152.47;5199969;28;20483;-39
2022/04/09 09:18:23;;;;;;;11.57;2.55;;;;;;;13.57;48.23;101141.13;5193342;28;20417;-39
2022/04/09 09:20:57;;;;;;;7.45;1.88;;;;;;;13.45;48.36;101167.13;5188017;28;20465;-39
2022/04/09 09:23:33;;;;;;;5.28;1.73;;;;;;;13.35;48.35;101183.19;5197139;28;20425;-40
2022/04/09 09:26:05;;;;;;;8.80;1.67;;;;;;;13.31;48.22;101181.81;5192255;28;20942;-41
2022/04/09 09:28:38;;;;;;;9.00;2.20;;;;;;;13.30;48.08;101179.34;5182382;28;20414;-42
2022/04/09 09:31:12;;;;;;;9.27;2.10;;;;;;;13.27;48.11;101182.31;5177524;28;20583;-40
2022/04/09 09:33:49;;;;;;;8.73;2.22;;;;;;;13.19;48.00;101169.78;5199280;28;20872;-43
2022/04/09 09:36:33;;;;;;;7.18;2.20;;;;;;;13.39;47.91;101181.03;5193052;28;20468;-41
2022/04/09 09:39:08;;;;;;;15.57;2.58;;;;;;;13.47;47.80;101182.88;5192871;28;20498;-41
2022/04/09 09:41:50;;;;;;;12.63;2.20;;;;;;;13.59;47.45;101187.75;5194266;28;20505;-44
2022/04/09 09:44:24;;;;;;;10.65;2.20;;;;;;;13.71;47.11;101196.22;5190517;28;20426;-42
2022/04/09 09:47:06;;;;;;;10.73;2.42;;;;;;;13.61;47.20;101185.75;5190949;28;20476;-48
2022/04/09 09:49:53;;;;;;;11.52;2.63;;;;;;;13.47;47.05;101196.16;5189979;28;20415;-40
2022/04/09 09:52:27;;;;;;;9.88;2.20;;;;;;;13.40;46.91;101205.75;5198007;28;20912;-46
2022/04/09 09:55:10;;;;;;;6.70;2.63;;;;;;;13.27;46.88;101203.53;5195865;28;20419;-39
2022/04/09 09:57:49;;;;;;;9.98;2.50;;;;;;;13.02;47.02;101211.31;5184803;28;20418;-41
2022/04/09 10:00:22;;;;;;;11.93;3.22;;;;;;;12.88;47.21;101210.09;5204520;28;20502;-39
2022/04/09 10:02:55;;;;;;;14.13;3.63;;;;;;;12.70;47.18;101201.34;5190056;28;20810;-43
2022/04/09 10:05:29;;;;;;;16.42;3.70;;;;;;;12.65;47.37;101219.53;5192719;28;20406;-43
2022/04/09 10:08:02;;;;;;;13.65;3.70;;;;;;;12.44;47.29;101233.09;5193801;28;20413;-40
2022/04/09 10:10:37;;;;;;;17.30;3.83;;;;;;;12.12;47.61;101244.22;5190654;28;20515;-40
2022/04/09 10:13:10;;;;;;;12.80;3.25;;;;;;;11.62;47.97;101226.09;5187153;28;20427;-40
2022/04/09 10:15:46;;;;;;;10.33;3.10;;;;;;;11.06;48.50;101236.59;5195615;28;20421;-40
2022/04/09 10:18:25;;;;;;;13.88;4.03;;;;;;;10.59;48.90;101212.75;5179548;28;20407;-40
2022/04/09 10:21:01;;;;;;;13.50;4.00;;;;;;;10.51;49.12;101244.31;5192676;28;20423;-39
2022/04/09 10:23:36;;;;;;;12.73;3.38;;;;;;;10.38;49.30;101235.84;5190118;28;20926;-40
2022/04/09 10:26:09;;;;;;;15.38;3.63;;;;;;;10.40;49.38;101231.25;5189652;28;20925;-39
2022/04/09 10:28:42;;;;;;;12.90;3.67;;;;;;;10.64;49.23;101256.41;5193596;28;20417;-42
2022/04/09 10:31:34;;;;;;;13.37;3.10;;;;;;;10.84;49.50;101245.69;5190991;28;20554;-40
2022/04/09 10:34:10;;;;;;;11.00;2.60;;;;;;;10.99;49.51;101253.16;5190267;28;20760;-38
2022/04/09 10:37:06;;;;;;;7.25;2.40;;;;;;;10.94;49.56;101258.88;5183645;28;20477;-40
2022/04/09 10:39:46;;;;;;;7.85;2.33;;;;;;;10.79;49.83;101262.94;5190222;28;20417;-41
2022/04/09 10:42:56;;;;;;;7.20;2.57;;;;;;;10.74;50.05;101268.63;5192655;28;20417;-41
2022/04/09 10:45:30;;;;;;;8.50;2.10;;;;;;;10.55;50.13;101273.91;5196639;28;20467;-39
2022/04/09 10:48:11;;;;;;;8.38;2.47;;;;;;;10.61;50.16;101289.22;5190893;28;20423;-45
2022/04/09 10:51:04;;;;;;;9.25;2.63;;;;;;;10.63;50.30;101282.00;5185318;28;20459;-40
2022/04/09 10:53:41;;;;;;;12.57;2.65;;;;;;;10.70;50.23;101276.97;5195438;28;20538;-43
2022/04/09 10:56:20;;;;;;;9.07;2.87;;;;;;;10.80;50.18;101275.97;5192617;28;20614;-40
2022/04/09 10:59:30;;;;;;;10.23;2.53;;;;;;;10.59;50.32;101239.19;5193988;28;20419;-39
2022/04/09 11:02:04;;;;;;;14.98;3.47;;;;;;;10.72;50.53;101285.59;5187756;28;20407;-39
2022/04/09 11:04:46;;;;;;;10.68;2.85;;;;;;;10.57;50.57;101272.81;5191519;28;20923;-40
2022/04/09 11:07:20;;;;;;;16.90;3.20;;;;;;;9.83;50.83;101175.59;5190692;28;20415;-43
2022/04/09 11:10:00;;;;;;;7.70;2.22;;;;;;;10.45;50.96;101295.03;5196760;28;20992;-40
2022/04/09 11:12:45;;;;;;;7.10;2.13;;;;;;;10.54;51.11;101296.03;5196004;28;20401;-40
2022/04/09 11:15:19;;;;;;;7.68;2.00;;;;;;;10.49;51.51;101306.97;5190382;28;20911;-43
2022/04/09 11:17:53;;;;;;;9.38;2.47;;;;;;;10.59;51.44;101296.41;5190627;28;20411;-39
2022/04/09 11:20:30;;;;;;;9.50;2.67;;;;;;;10.83;51.15;101298.66;5191790;28;20647;-39
2022/04/09 11:23:12;;;;;;;10.65;2.70;;;;;;;11.00;50.99;101290.03;5194711;28;20927;-39
2022/04/09 11:25:47;;;;;;;12.33;2.80;;;;;;;11.10;51.00;101300.56;5186486;28;20984;-39
2022/04/09 11:28:19;;;;;;;11.43;3.55;;;;;;;11.16;51.07;101288.59;5193665;28;20519;-39
2022/04/09 11:30:54;;;;;;;14.10;3.42;;;;;;;11.31;51.06;101292.47;5195454;28;20439;-40
2022/04/09 11:33:27;;;;;;;15.90;3.47;;;;;;;11.49;51.05;101290.75;5191966;28;20771;-41
2022/04/09 11:36:01;;;;;;;16.90;3.47;;;;;;;11.45;50.86;101310.50;5192473;28;20510;-42
2022/04/09 11:38:34;;;;;;;12.73;3.25;;;;;;;11.25;51.07;101320.31;5191763;28;20423;-42
2022/04/09 11:41:20;;;;;;;9.80;2.80;;;;;;;11.07;51.24;101322.84;5190746;28;20415;-44
2022/04/09 11:43:54;;;;;;;4.47;1.85;;;;;;;10.81;51.29;101329.69;5190188;28;20929;-45
2022/04/09 11:46:32;;;;;;;8.05;2.20;;;;;;;10.55;51.56;101327.56;5190447;28;20900;-40
2022/04/09 11:49:05;;;;;;;5.57;2.10;;;;;;;10.51;51.87;101328.81;5187849;28;20506;-40
2022/04/09 11:51:37;;;;;;;6.40;2.00;;;;;;;10.63;51.76;101331.34;5188506;28;20407;-41
2022/04/09 11:54:17;;;;;;;6.18;2.05;;;;;;;10.79;51.51;101316.59;5190142;28;20425;-40
2022/04/09 11:56:51;;;;;;;7.40;2.37;;;;;;;10.87;51.24;101293.91;5188873;28;20419;-39